This is the latest recevied weather packets stored in our database for station/object N8TWM-13. If no packets are shown the sender has not sent any weather packets the latest 1 day(s).
| Time | Temp. | Humidity | Pressure | Rain* | Wind** | Luminosity | Snow |
|---|---|---|---|---|---|---|---|
| 1778026892 | 12.22° C | 96% | 1007.7 hPa | 12.7 mm | - | 0 W/m² | - |
| 1778025680 | 12.78° C | 95% | 1007.5 hPa | 6.1 mm | - | 1 W/m² | - |
| 1778025378 | 12.22° C | 95% | 1007.5 hPa | 3.05 mm | - | 1 W/m² | - |
| 1778024772 | 12.22° C | 95% | 1007.6 hPa | 4.83 mm | - | 3 W/m² | - |
| 1778024166 | 12.78° C | 95% | 1007.7 hPa | 7.87 mm | - | 2 W/m² | - |
| 1778023863 | 13.33° C | 95% | 1008 hPa | 6.1 mm | - | 3 W/m² | - |
| 1778023561 | 13.89° C | 95% | 1008 hPa | 8.89 mm | - | 6 W/m² | - |
| 1778022351 | 14.44° C | 95% | 1007.7 hPa | 1.27 mm | - | 10 W/m² | - |
| 1778022047 | 14.44° C | 94% | 1007.8 hPa | 1.27 mm | - | 24 W/m² | - |
| 1778021744 | 14.44° C | 94% | 1007.8 hPa | 1.78 mm | - | 29 W/m² | - |
| 1778021440 | 14.44° C | 94% | 1007.5 hPa | 3.05 mm | - | 13 W/m² | - |
| 1778019924 | 14.44° C | 94% | 1008.3 hPa | 6.1 mm | - | 27 W/m² | - |
| 1778019014 | 14.44° C | 93% | 1008.1 hPa | 6.1 mm | - | 20 W/m² | - |
| 1778018711 | 14.44° C | 93% | 1008.1 hPa | 10.67 mm | - | 16 W/m² | - |
| 1778018107 | 14.44° C | 92% | 1008.3 hPa | 35.31 mm | - | 18 W/m² | - |
| 1778015077 | 15° C | 92% | 1007.8 hPa | 0 mm | - | 85 W/m² | - |
| 1778013260 | 15° C | 92% | 1007.8 hPa | 0 mm | - | 136 W/m² | - |
| 1778009017 | 16.67° C | 83% | 1008.6 hPa | 0 mm | - | 45 W/m² | - |
| 1778008714 | 16.67° C | 83% | 1008.3 hPa | 0 mm | - | 55 W/m² | - |
| 1778008413 | 16.67° C | 82% | 1008.4 hPa | 0 mm | - | 72 W/m² | - |
| 1778008109 | 16.67° C | 82% | 1008.1 hPa | 0 mm | - | 76 W/m² | - |
| 1778004772 | 18.89° C | 72% | 1008.3 hPa | 0 mm | - | 71 W/m² | - |
| 1778004468 | 20° C | 70% | 1008.4 hPa | 0 mm | - | 275 W/m² | - |
| 1778002647 | 18.33° C | 74% | 1008.5 hPa | 0 mm | - | 74 W/m² | - |
| 1778001433 | 17.78° C | 74% | 1008.5 hPa | 0 mm | - | 75 W/m² | - |
* Rain latest hour (hover to see other rain measurements)
** Current wind speed in m/s (hover to see current wind gust speed)